createdAt,value
2022-10-06T00:02:19.547Z,0.30
2022-10-06T00:04:46.878Z,0.20
2022-10-06T00:07:14.430Z,0.20
2022-10-06T00:09:41.424Z,0.77
2022-10-06T00:12:09.174Z,0.30
2022-10-06T00:14:36.447Z,0.57
2022-10-06T00:17:02.903Z,0.20
2022-10-06T00:19:29.245Z,0.20
2022-10-06T00:21:55.551Z,0.30
2022-10-06T00:24:21.995Z,0.60
2022-10-06T00:26:48.447Z,0.28
2022-10-06T00:29:14.767Z,0.30
2022-10-06T00:31:41.722Z,0.20
2022-10-06T00:34:08.051Z,0.30
2022-10-06T00:36:34.442Z,0.13
2022-10-06T00:39:00.777Z,1.17
2022-10-06T00:41:27.144Z,0.40
2022-10-06T00:43:59.368Z,0.38
2022-10-06T00:46:37.063Z,0.20
2022-10-06T00:49:13.907Z,0.20
2022-10-06T00:52:02.781Z,0.20
2022-10-06T00:54:31.650Z,0.60
2022-10-06T00:56:58.106Z,0.30
2022-10-06T00:59:24.507Z,0.20
2022-10-06T01:04:25.647Z,0.20
2022-10-06T01:06:54.763Z,0.32
2022-10-06T01:09:23.379Z,0.20
2022-10-06T01:11:53.148Z,1.05
2022-10-06T01:14:22.477Z,0.20
2022-10-06T01:16:58.918Z,0.40
2022-10-06T01:19:44.493Z,0.57
2022-10-06T01:22:14.496Z,0.60
2022-10-06T01:24:40.910Z,0.95
2022-10-06T01:27:08.774Z,0.20
2022-10-06T01:29:36.917Z,0.25
2022-10-06T01:32:03.642Z,0.82
2022-10-06T01:34:30.049Z,0.77
2022-10-06T01:36:56.353Z,0.30
2022-10-06T01:39:22.688Z,0.30
2022-10-06T01:41:49.078Z,0.45
2022-10-06T01:44:15.455Z,0.98
2022-10-06T01:46:41.849Z,0.68
2022-10-06T01:49:08.181Z,0.30
2022-10-06T01:51:34.544Z,0.20
2022-10-06T01:54:00.840Z,0.30
2022-10-06T01:56:27.179Z,0.30
2022-10-06T01:58:53.502Z,0.28
2022-10-06T02:01:19.874Z,0.20
2022-10-06T02:03:46.343Z,0.60
2022-10-06T02:06:12.741Z,0.30
2022-10-06T02:08:39.166Z,0.45
2022-10-06T02:11:07.934Z,0.30
2022-10-06T02:13:34.634Z,0.77
2022-10-06T02:16:01.000Z,0.20
2022-10-06T02:18:28.338Z,0.40
2022-10-06T02:20:55.059Z,0.20
2022-10-06T02:23:21.400Z,0.13
2022-10-06T02:25:47.731Z,0.30
2022-10-06T02:28:16.610Z,0.37
2022-10-06T02:30:43.300Z,0.10
2022-10-06T02:33:09.671Z,0.40
2022-10-06T02:35:35.986Z,0.25
2022-10-06T02:38:02.274Z,0.10
2022-10-06T02:40:28.581Z,0.47
2022-10-06T02:42:54.896Z,0.20
2022-10-06T02:45:21.225Z,0.20
2022-10-06T02:47:47.525Z,0.20
2022-10-06T02:50:13.837Z,0.10
2022-10-06T02:52:42.689Z,0.20
2022-10-06T02:55:09.833Z,0.63
2022-10-06T02:57:36.150Z,0.20
2022-10-06T03:00:04.411Z,0.40
2022-10-06T03:02:31.025Z,0.20
2022-10-06T03:04:57.467Z,0.10
2022-10-06T03:07:23.815Z,0.10
2022-10-06T03:09:50.189Z,0.15
2022-10-06T03:12:16.572Z,0.20
2022-10-06T03:14:42.947Z,0.25
2022-10-06T03:17:09.881Z,0.20
2022-10-06T03:19:37.315Z,0.30
2022-10-06T03:22:05.008Z,0.20
2022-10-06T03:24:32.090Z,0.10
2022-10-06T03:26:58.531Z,0.20
2022-10-06T03:29:24.971Z,0.30
2022-10-06T03:31:51.424Z,0.20
2022-10-06T03:34:17.872Z,0.30
2022-10-06T03:36:44.244Z,0.20
2022-10-06T03:39:10.644Z,0.30
2022-10-06T03:41:38.129Z,0.10
2022-10-06T03:44:05.418Z,0.10
2022-10-06T03:46:33.668Z,0.13
2022-10-06T03:49:01.265Z,0.30
2022-10-06T03:51:32.912Z,0.20
2022-10-06T03:54:00.210Z,0.10
2022-10-06T03:56:32.982Z,0.20
2022-10-06T03:59:01.528Z,0.40
2022-10-06T04:01:33.810Z,0.25
2022-10-06T04:04:01.346Z,0.25
2022-10-06T04:06:29.554Z,0.27
2022-10-06T04:08:56.335Z,0.10
2022-10-06T04:11:26.088Z,0.50
2022-10-06T04:14:01.000Z,0.38
2022-10-06T04:16:28.393Z,0.30
2022-10-06T04:18:58.516Z,0.50
2022-10-06T04:21:26.228Z,0.13
2022-10-06T04:23:54.007Z,0.20
2022-10-06T04:26:21.914Z,0.20
2022-10-06T04:28:48.888Z,0.10
2022-10-06T04:31:19.022Z,0.20
2022-10-06T04:33:47.098Z,0.82
2022-10-06T04:36:16.775Z,0.40
2022-10-06T04:38:43.951Z,0.45
2022-10-06T04:41:16.204Z,0.50
2022-10-06T04:43:44.481Z,0.20
2022-10-06T04:46:37.655Z,0.55
2022-10-06T04:48:57.328Z,0.17
2022-10-06T04:51:26.297Z,0.28
2022-10-06T04:53:52.971Z,0.10
2022-10-06T04:56:24.004Z,0.20
2022-10-06T04:58:52.286Z,0.30
2022-10-06T05:01:26.155Z,0.40
2022-10-06T05:03:55.941Z,0.65
2022-10-06T05:06:27.996Z,0.38
2022-10-06T05:09:02.464Z,0.30
2022-10-06T05:11:29.482Z,0.40
2022-10-06T05:13:57.828Z,0.17
2022-10-06T05:16:26.203Z,0.30
2022-10-06T05:18:52.839Z,0.20
2022-10-06T05:21:27.648Z,0.40
2022-10-06T05:23:54.079Z,0.20
2022-10-06T05:26:23.626Z,0.32
2022-10-06T05:28:50.323Z,0.20
2022-10-06T05:31:19.813Z,0.30
2022-10-06T05:33:46.470Z,0.40
2022-10-06T05:36:16.996Z,0.20
2022-10-06T05:38:44.457Z,0.50
2022-10-06T05:41:13.543Z,0.15
2022-10-06T05:43:41.070Z,0.13
2022-10-06T05:46:12.973Z,0.30
2022-10-06T05:48:39.341Z,0.30
2022-10-06T05:51:09.425Z,0.63
2022-10-06T05:53:37.263Z,0.20
2022-10-06T05:56:08.279Z,0.30
2022-10-06T05:58:36.112Z,0.20
2022-10-06T06:01:12.314Z,0.20
2022-10-06T06:03:40.536Z,0.30
2022-10-06T06:06:22.165Z,0.20
2022-10-06T06:08:53.212Z,0.38
2022-10-06T06:11:25.169Z,0.37
2022-10-06T06:13:52.750Z,0.10
2022-10-06T06:16:19.266Z,0.20
2022-10-06T06:18:45.770Z,0.28
2022-10-06T06:21:12.185Z,0.30
2022-10-06T06:23:45.861Z,0.20
2022-10-06T06:26:26.731Z,0.20
2022-10-06T06:28:56.354Z,0.38
2022-10-06T06:31:26.474Z,0.30
2022-10-06T06:33:55.080Z,0.22
2022-10-06T06:36:25.249Z,0.10
2022-10-06T06:38:57.321Z,0.30
2022-10-06T06:41:25.208Z,0.50
2022-10-06T06:43:52.871Z,0.30
2022-10-06T06:46:24.894Z,0.57
2022-10-06T06:48:52.699Z,0.30
2022-10-06T06:51:23.984Z,0.30
2022-10-06T06:53:51.110Z,0.40
2022-10-06T06:56:18.330Z,0.22
2022-10-06T06:58:48.901Z,0.77
2022-10-06T07:01:17.387Z,0.20
2022-10-06T07:04:02.342Z,0.30
2022-10-06T07:06:30.354Z,0.20
2022-10-06T07:08:58.953Z,0.17
2022-10-06T07:11:29.398Z,0.40
2022-10-06T07:14:03.831Z,0.63
2022-10-06T07:16:50.354Z,0.93
2022-10-06T07:19:37.180Z,0.40
2022-10-06T07:22:28.114Z,0.82
2022-10-06T07:25:07.410Z,0.30
2022-10-06T07:27:42.339Z,0.50
2022-10-06T07:30:17.878Z,0.40
2022-10-06T07:32:45.448Z,0.40
2022-10-06T07:35:12.292Z,0.45
2022-10-06T07:37:38.999Z,0.77
2022-10-06T07:40:07.928Z,0.30
2022-10-06T07:42:53.363Z,0.50
2022-10-06T07:45:40.847Z,0.70
2022-10-06T07:48:17.914Z,0.32
2022-10-06T07:50:47.731Z,0.50
2022-10-06T07:53:14.891Z,0.50
2022-10-06T07:55:45.415Z,0.82
2022-10-06T07:58:13.777Z,0.98
2022-10-06T08:00:41.763Z,0.88
2022-10-06T08:03:09.952Z,0.70
2022-10-06T08:05:36.410Z,0.30
2022-10-06T08:08:02.723Z,0.40
2022-10-06T08:10:29.036Z,0.68
2022-10-06T08:12:55.334Z,0.75
2022-10-06T08:15:21.699Z,0.63
2022-10-06T08:17:48.106Z,0.60
2022-10-06T08:20:14.507Z,0.77
2022-10-06T08:22:41.088Z,0.63
2022-10-06T08:25:09.280Z,0.95
2022-10-06T08:27:37.396Z,0.45
2022-10-06T08:30:05.915Z,0.63
2022-10-06T08:32:33.016Z,0.52
2022-10-06T08:34:59.395Z,1.02
2022-10-06T08:37:26.721Z,0.80
2022-10-06T08:39:54.337Z,0.60
2022-10-06T08:42:31.298Z,0.50
2022-10-06T08:45:02.754Z,0.80
2022-10-06T08:47:33.643Z,0.50
2022-10-06T08:50:00.866Z,0.70
2022-10-06T08:52:37.877Z,0.45
2022-10-06T08:55:22.964Z,0.87
2022-10-06T08:58:06.189Z,1.00
2022-10-06T09:00:35.192Z,0.60
2022-10-06T09:03:02.282Z,0.30
2022-10-06T09:05:31.110Z,0.50
2022-10-06T09:08:16.107Z,0.60
2022-10-06T09:11:06.905Z,0.82
2022-10-06T09:13:43.799Z,0.63
2022-10-06T09:16:16.932Z,0.95
2022-10-06T09:19:07.334Z,0.70
2022-10-06T09:21:44.523Z,0.40
2022-10-06T09:24:15.690Z,0.77
2022-10-06T09:26:44.964Z,1.05
2022-10-06T09:29:12.112Z,0.40
2022-10-06T09:31:44.161Z,0.65
2022-10-06T09:34:38.336Z,0.97
2022-10-06T09:37:10.990Z,1.02
2022-10-06T09:39:48.053Z,0.57
2022-10-06T09:42:28.215Z,0.60
2022-10-06T09:45:25.610Z,0.40
2022-10-06T09:47:52.075Z,0.40
2022-10-06T09:50:22.573Z,0.70
2022-10-06T09:52:58.123Z,0.40
2022-10-06T09:55:29.367Z,0.30
2022-10-06T09:57:57.294Z,0.50
2022-10-06T10:00:27.655Z,0.40
2022-10-06T10:03:04.013Z,0.43
2022-10-06T10:05:33.349Z,0.55
2022-10-06T10:08:09.863Z,0.50
2022-10-06T10:10:37.268Z,0.80
2022-10-06T10:13:17.323Z,0.40
2022-10-06T10:15:59.500Z,0.25
2022-10-06T10:18:30.138Z,0.38
2022-10-06T10:20:57.828Z,0.40
2022-10-06T10:23:33.253Z,0.45
2022-10-06T10:26:09.427Z,0.23
2022-10-06T10:29:02.118Z,0.32
2022-10-06T10:31:31.351Z,0.38
2022-10-06T10:34:23.959Z,0.50
2022-10-06T10:37:05.669Z,0.45
2022-10-06T10:39:58.954Z,0.50
2022-10-06T10:42:43.581Z,0.90
2022-10-06T10:45:19.106Z,0.68
2022-10-06T10:47:46.898Z,0.30
2022-10-06T10:50:22.633Z,0.22
2022-10-06T10:52:51.463Z,0.90
2022-10-06T10:55:29.549Z,0.25
2022-10-06T10:58:01.372Z,0.40
2022-10-06T11:00:31.130Z,0.63
2022-10-06T11:02:58.676Z,0.40
2022-10-06T11:05:33.263Z,0.30
2022-10-06T11:08:36.672Z,0.20
2022-10-06T11:11:09.268Z,0.50
2022-10-06T11:13:44.320Z,0.30
2022-10-06T11:16:46.547Z,0.20
2022-10-06T11:19:29.730Z,0.43
2022-10-06T11:22:03.498Z,0.45
2022-10-06T11:24:45.103Z,0.30
2022-10-06T11:27:36.030Z,0.73
2022-10-06T11:30:11.576Z,0.50
2022-10-06T11:32:44.098Z,0.37
2022-10-06T11:35:21.635Z,0.30
2022-10-06T11:38:29.515Z,0.40
2022-10-06T11:41:09.909Z,0.30
2022-10-06T11:43:50.354Z,0.40
2022-10-06T11:46:31.786Z,0.37
2022-10-06T11:49:30.069Z,0.30
2022-10-06T11:52:17.039Z,0.30
2022-10-06T11:54:43.302Z,0.20
2022-10-06T11:57:31.108Z,0.30
2022-10-06T12:00:15.719Z,0.30
2022-10-06T12:02:46.159Z,0.32
2022-10-06T12:05:49.385Z,0.20
2022-10-06T12:08:02.829Z,0.20
2022-10-06T12:10:29.111Z,0.40
2022-10-06T12:13:51.004Z,0.23
2022-10-06T12:19:30.927Z,0.28
2022-10-06T12:22:16.864Z,0.20
2022-10-06T12:25:14.348Z,0.20
2022-10-06T12:27:59.588Z,0.30
2022-10-06T12:31:01.189Z,0.40
2022-10-06T12:33:38.817Z,0.50
2022-10-06T12:36:29.212Z,0.30
2022-10-06T12:39:07.022Z,0.30
2022-10-06T12:42:02.526Z,0.43
2022-10-06T12:44:40.285Z,0.40
2022-10-06T12:47:22.670Z,0.30
2022-10-06T12:50:01.747Z,0.40
2022-10-06T12:52:49.079Z,0.60
2022-10-06T12:55:32.779Z,0.30
2022-10-06T12:57:59.361Z,0.38
2022-10-06T13:00:52.058Z,0.30
2022-10-06T13:03:24.279Z,0.30
2022-10-06T13:05:54.958Z,0.40
2022-10-06T13:08:24.372Z,0.20
2022-10-06T13:10:50.858Z,0.20
2022-10-06T13:13:24.037Z,0.30
2022-10-06T13:15:55.920Z,0.40
2022-10-06T13:18:23.167Z,0.30
2022-10-06T13:20:54.542Z,0.20
2022-10-06T13:23:37.632Z,0.30
2022-10-06T13:26:12.951Z,0.40
2022-10-06T13:28:42.309Z,0.20
2022-10-06T13:31:17.617Z,0.30
2022-10-06T13:33:46.290Z,0.10
2022-10-06T13:36:13.430Z,0.30
2022-10-06T13:38:41.635Z,0.20
2022-10-06T13:41:13.708Z,0.82
2022-10-06T13:43:44.437Z,0.20
2022-10-06T13:46:14.721Z,0.13
2022-10-06T13:48:53.254Z,0.75
2022-10-06T13:51:23.413Z,0.30
2022-10-06T13:53:51.435Z,0.30
2022-10-06T13:56:35.299Z,0.10
2022-10-06T13:59:33.903Z,0.83
2022-10-06T14:02:20.355Z,0.20
2022-10-06T14:05:20.924Z,0.20
2022-10-06T14:07:48.435Z,0.10
2022-10-06T14:10:17.337Z,0.20
2022-10-06T14:12:45.962Z,0.20
2022-10-06T14:15:21.504Z,0.10
2022-10-06T14:18:00.978Z,0.10
2022-10-06T14:20:37.490Z,0.10
2022-10-06T14:23:42.151Z,0.10
2022-10-06T14:26:11.125Z,0.10
2022-10-06T14:28:39.032Z,0.10
2022-10-06T14:31:05.582Z,0.20
2022-10-06T14:33:32.151Z,0.10
2022-10-06T14:35:58.488Z,0.40
2022-10-06T14:38:25.147Z,0.10
2022-10-06T14:40:51.555Z,0.20
2022-10-06T14:43:18.670Z,0.20
2022-10-06T14:45:45.255Z,0.20
2022-10-06T14:48:15.166Z,0.20
2022-10-06T14:50:45.193Z,0.10
2022-10-06T14:53:14.860Z,0.20
2022-10-06T14:55:41.566Z,0.17
2022-10-06T14:58:07.950Z,0.82
2022-10-06T15:00:34.331Z,0.28
2022-10-06T15:03:00.770Z,0.20
2022-10-06T15:05:27.241Z,0.10
2022-10-06T15:08:11.748Z,0.10
2022-10-06T15:10:38.985Z,0.10
2022-10-06T15:13:08.325Z,0.20
2022-10-06T15:15:35.919Z,0.10
2022-10-06T15:18:03.584Z,0.10
2022-10-06T15:20:29.915Z,0.20
2022-10-06T15:22:56.420Z,0.25
2022-10-06T15:25:41.621Z,0.10
2022-10-06T15:28:30.936Z,0.20
2022-10-06T15:30:58.461Z,0.10
2022-10-06T15:33:26.871Z,0.10
2022-10-06T15:36:15.419Z,0.15
2022-10-06T15:38:42.303Z,0.10
2022-10-06T15:41:10.026Z,0.20
2022-10-06T15:43:56.128Z,0.10
2022-10-06T15:46:31.959Z,0.10
2022-10-06T15:49:02.865Z,0.10
2022-10-06T15:51:31.638Z,0.20
2022-10-06T15:53:58.371Z,0.20
2022-10-06T15:56:26.240Z,0.13
2022-10-06T15:58:52.665Z,0.20
2022-10-06T16:01:27.605Z,0.10
2022-10-06T16:03:54.348Z,0.10
2022-10-06T16:06:40.333Z,0.27
2022-10-06T16:09:09.330Z,0.22
2022-10-06T16:11:35.864Z,0.90
2022-10-06T16:14:02.457Z,0.40
2022-10-06T16:16:29.145Z,0.10
2022-10-06T16:18:56.088Z,0.20
2022-10-06T16:21:22.418Z,0.10
2022-10-06T16:23:52.042Z,0.10
2022-10-06T16:26:18.489Z,0.10
2022-10-06T16:28:45.554Z,0.10
2022-10-06T16:31:11.968Z,0.27
2022-10-06T16:33:38.353Z,0.30
2022-10-06T16:36:05.047Z,0.20
2022-10-06T16:38:31.360Z,0.20
2022-10-06T16:41:01.514Z,0.13
2022-10-06T16:43:32.637Z,0.10
2022-10-06T16:46:04.842Z,0.20
2022-10-06T16:48:33.602Z,0.10
2022-10-06T16:51:07.351Z,0.35
2022-10-06T16:54:01.566Z,0.20
2022-10-06T16:56:33.898Z,0.30
2022-10-06T16:59:06.539Z,0.10
2022-10-06T17:01:36.445Z,0.30
2022-10-06T17:04:12.134Z,0.20
2022-10-06T17:06:41.610Z,0.17
2022-10-06T17:09:14.265Z,0.33
2022-10-06T17:11:43.313Z,0.30
2022-10-06T17:14:10.071Z,0.10
2022-10-06T17:16:39.570Z,0.20
2022-10-06T17:19:06.517Z,0.65
2022-10-06T17:21:45.638Z,0.20
2022-10-06T17:24:14.007Z,0.13
2022-10-06T17:26:42.511Z,0.10
2022-10-06T17:29:13.722Z,0.40
2022-10-06T17:31:42.508Z,0.70
2022-10-06T17:34:11.957Z,0.10
2022-10-06T17:36:40.040Z,0.20
2022-10-06T17:39:07.760Z,0.20
2022-10-06T17:41:40.100Z,0.20
2022-10-06T17:44:09.270Z,0.10
2022-10-06T17:46:45.283Z,0.17
2022-10-06T17:49:13.882Z,0.28
2022-10-06T17:51:42.190Z,0.20
2022-10-06T17:54:12.998Z,0.10
2022-10-06T17:56:39.888Z,0.30
2022-10-06T17:59:10.745Z,0.20
2022-10-06T18:01:37.536Z,0.35
2022-10-06T18:04:05.382Z,0.30
2022-10-06T18:06:33.952Z,0.10
2022-10-06T18:09:02.311Z,0.17
2022-10-06T18:11:33.522Z,0.20
2022-10-06T18:14:01.455Z,0.15
2022-10-06T18:16:36.181Z,0.50
2022-10-06T18:19:09.052Z,0.10
2022-10-06T18:21:39.737Z,0.25
2022-10-06T18:24:13.504Z,0.43
2022-10-06T18:26:41.795Z,0.20
2022-10-06T18:29:10.214Z,0.20
2022-10-06T18:31:37.817Z,0.30
2022-10-06T18:36:51.687Z,0.20
2022-10-06T18:39:18.157Z,0.30
2022-10-06T18:41:46.114Z,0.25
2022-10-06T18:44:12.731Z,0.20
2022-10-06T18:46:57.478Z,0.28
2022-10-06T18:49:25.223Z,0.10
2022-10-06T18:51:58.142Z,0.20
2022-10-06T18:54:27.277Z,0.20
2022-10-06T18:56:54.947Z,0.30
2022-10-06T18:59:26.787Z,0.52
2022-10-06T19:01:55.217Z,0.40
2022-10-06T19:04:23.067Z,0.20
2022-10-06T19:06:52.839Z,0.50
2022-10-06T19:09:24.122Z,0.20
2022-10-06T19:11:53.386Z,0.40
2022-10-06T19:14:24.460Z,0.83
2022-10-06T19:16:58.976Z,0.20
2022-10-06T19:19:27.399Z,0.30
2022-10-06T19:22:02.456Z,0.30
2022-10-06T19:24:43.838Z,0.20
2022-10-06T19:27:13.653Z,0.40
2022-10-06T19:29:45.777Z,0.25
2022-10-06T19:32:16.114Z,0.30
2022-10-06T19:34:42.899Z,0.40
2022-10-06T19:37:09.338Z,0.30
2022-10-06T19:39:40.220Z,0.20
2022-10-06T19:42:28.534Z,0.30
2022-10-06T19:44:54.848Z,0.20
2022-10-06T19:47:21.385Z,0.20
2022-10-06T19:49:47.732Z,0.30
2022-10-06T19:52:14.540Z,0.20
2022-10-06T19:54:41.884Z,0.20
2022-10-06T19:57:11.331Z,0.22
2022-10-06T19:59:38.037Z,0.30
2022-10-06T20:02:07.618Z,0.73
2022-10-06T20:04:34.123Z,0.30
2022-10-06T20:07:01.791Z,0.30
2022-10-06T20:09:31.637Z,0.20
2022-10-06T20:11:58.404Z,0.20
2022-10-06T20:14:26.271Z,0.30
2022-10-06T20:16:54.015Z,0.37
2022-10-06T20:19:21.569Z,0.60
2022-10-06T20:21:50.956Z,0.77
2022-10-06T20:24:22.540Z,0.40
2022-10-06T20:26:50.325Z,0.70
2022-10-06T20:29:19.811Z,0.40
2022-10-06T20:31:49.033Z,0.40
2022-10-06T20:34:18.094Z,0.40
2022-10-06T20:36:44.651Z,0.20
2022-10-06T20:39:38.175Z,0.50
2022-10-06T20:42:09.460Z,0.40
2022-10-06T20:44:40.154Z,0.75
2022-10-06T20:47:08.611Z,0.40
2022-10-06T20:49:34.934Z,0.30
2022-10-06T20:52:02.663Z,0.60
2022-10-06T20:54:35.866Z,0.70
2022-10-06T20:57:04.954Z,0.38
2022-10-06T20:59:32.053Z,0.40
2022-10-06T21:02:01.560Z,0.50
2022-10-06T21:04:28.024Z,0.65
2022-10-06T21:06:54.682Z,0.30
2022-10-06T21:09:21.073Z,0.60
2022-10-06T21:11:48.004Z,0.38
2022-10-06T21:14:15.413Z,0.40
2022-10-06T21:16:44.603Z,0.40
2022-10-06T21:19:14.409Z,0.80
2022-10-06T21:21:42.284Z,0.50
2022-10-06T21:24:09.440Z,0.60
2022-10-06T21:26:38.436Z,0.82
2022-10-06T21:29:08.001Z,0.75
2022-10-06T21:31:34.613Z,0.63
2022-10-06T21:34:04.905Z,0.77
2022-10-06T21:36:32.027Z,0.73
2022-10-06T21:39:00.273Z,0.85
2022-10-06T21:41:29.896Z,1.10
2022-10-06T21:44:03.652Z,2.67
2022-10-06T21:46:33.152Z,1.92
2022-10-06T21:49:00.799Z,2.50
2022-10-06T21:51:28.826Z,2.03
2022-10-06T21:53:58.279Z,1.70
2022-10-06T21:56:26.629Z,1.07
2022-10-06T21:58:55.568Z,1.40
2022-10-06T22:01:24.495Z,1.98
2022-10-06T22:03:50.970Z,0.63
2022-10-06T22:06:19.762Z,0.88
2022-10-06T22:08:46.775Z,0.90
2022-10-06T22:11:16.306Z,1.83
2022-10-06T22:13:45.055Z,2.15
2022-10-06T22:16:16.164Z,1.23
2022-10-06T22:18:42.763Z,1.20
2022-10-06T22:21:21.109Z,0.93
2022-10-06T22:23:53.153Z,1.42
2022-10-06T22:26:19.605Z,1.48
2022-10-06T22:28:48.278Z,1.85
2022-10-06T22:31:15.971Z,1.98
2022-10-06T22:33:43.870Z,1.33
2022-10-06T22:36:13.359Z,1.13
2022-10-06T22:38:40.289Z,1.50
2022-10-06T22:41:10.196Z,1.70
2022-10-06T22:43:36.965Z,1.23
2022-10-06T22:46:04.682Z,1.60
2022-10-06T22:48:31.302Z,0.90
2022-10-06T22:50:57.945Z,1.10
2022-10-06T22:53:26.017Z,1.23
2022-10-06T22:55:52.731Z,1.05
2022-10-06T22:58:19.296Z,0.90
2022-10-06T23:00:45.685Z,0.98
2022-10-06T23:03:12.547Z,0.95
2022-10-06T23:05:39.750Z,1.08
2022-10-06T23:08:07.260Z,0.68
2022-10-06T23:10:35.399Z,1.10
2022-10-06T23:13:02.747Z,0.95
2022-10-06T23:15:29.081Z,1.13
2022-10-06T23:17:55.423Z,1.38
2022-10-06T23:20:21.769Z,0.90
2022-10-06T23:22:48.177Z,1.30
2022-10-06T23:25:14.537Z,0.80
2022-10-06T23:27:41.053Z,0.82
2022-10-06T23:30:08.252Z,1.13
2022-10-06T23:32:34.615Z,0.75
2022-10-06T23:35:00.961Z,0.83
2022-10-06T23:37:28.286Z,1.00
2022-10-06T23:39:54.675Z,1.17
2022-10-06T23:42:20.993Z,0.80
2022-10-06T23:44:47.309Z,1.38
2022-10-06T23:47:16.483Z,0.73
2022-10-06T23:49:43.541Z,1.00
2022-10-06T23:52:10.029Z,1.38
2022-10-06T23:54:36.329Z,0.63
2022-10-06T23:57:02.844Z,1.00
2022-10-06T23:59:29.485Z,0.83
